Time;durP1;ratioP1;P1;durP2;ratioP2;P2;SDS_P1;SDS_P2;PMS_P1;PMS_P2;Temp;Humidity;BMP_temperature;BMP_pressure;BME280_temperature;BME280_humidity;BME280_pressure;Samples;Min_cycle;Max_cycle;Signal;HPM_P1;HPM_P2
2022/03/21 00:01:01;;;;;;;21.85;13.05;;;7.40;56.10;;;;;;5010121;28;20380;-52
2022/03/21 00:03:28;;;;;;;22.30;12.67;;;7.40;55.70;;;;;;4996469;28;20412;-53
2022/03/21 00:05:55;;;;;;;23.42;12.73;;;7.50;55.60;;;;;;5007096;28;20512;-53
2022/03/21 00:08:24;;;;;;;23.85;13.30;;;7.40;55.50;;;;;;5008932;28;20474;-53
2022/03/21 00:10:53;;;;;;;21.30;12.15;;;7.40;55.50;;;;;;5009818;28;20404;-53
2022/03/21 00:13:19;;;;;;;21.33;12.30;;;7.40;55.60;;;;;;5009321;28;20397;-53
2022/03/21 00:15:47;;;;;;;21.38;12.75;;;7.40;55.70;;;;;;5006011;28;20417;-52
2022/03/21 00:18:14;;;;;;;20.50;12.35;;;7.30;56.10;;;;;;5007505;28;20377;-51
2022/03/21 00:20:45;;;;;;;19.92;12.85;;;7.20;56.00;;;;;;5009617;28;20503;-51
2022/03/21 00:23:11;;;;;;;22.27;13.48;;;7.10;56.50;;;;;;5008874;28;20388;-52
2022/03/21 00:25:37;;;;;;;19.42;11.65;;;7.00;57.50;;;;;;5008295;28;20446;-52
2022/03/21 00:28:05;;;;;;;22.48;13.73;;;6.80;57.90;;;;;;5009417;28;20389;-51
2022/03/21 00:30:30;;;;;;;22.33;13.32;;;6.60;58.00;;;;;;5009431;28;20970;-52
2022/03/21 00:32:56;;;;;;;22.00;12.80;;;6.50;57.40;;;;;;5009660;28;20475;-51
2022/03/21 00:35:22;;;;;;;23.70;13.20;;;6.50;57.70;;;;;;4991220;28;20873;-51
2022/03/21 00:37:49;;;;;;;20.65;12.57;;;6.60;57.60;;;;;;5009555;28;20395;-52
2022/03/21 00:40:17;;;;;;;20.55;12.43;;;6.60;57.20;;;;;;5008539;28;20403;-52
2022/03/21 00:42:45;;;;;;;24.30;14.10;;;6.50;57.10;;;;;;5009597;28;20850;-52
2022/03/21 00:45:14;;;;;;;21.02;11.93;;;6.70;57.30;;;;;;5008459;28;20708;-52
2022/03/21 00:47:41;;;;;;;23.23;12.70;;;6.70;57.10;;;;;;5009554;28;20401;-51
2022/03/21 00:50:11;;;;;;;22.75;11.52;;;6.70;57.10;;;;;;5008636;28;20448;-51
2022/03/21 00:52:46;;;;;;;20.55;11.60;;;6.70;57.00;;;;;;5009572;28;20397;-52
2022/03/21 00:55:13;;;;;;;20.80;12.10;;;6.70;56.80;;;;;;5008713;28;20381;-51
2022/03/21 00:57:40;;;;;;;18.90;10.70;;;6.70;56.80;;;;;;5009366;28;20377;-51
2022/03/21 01:00:09;;;;;;;20.45;11.50;;;6.70;56.50;;;;;;5008638;28;20393;-51
2022/03/21 01:02:39;;;;;;;18.85;11.65;;;6.80;56.60;;;;;;5009482;28;20389;-52
2022/03/21 01:05:06;;;;;;;20.30;11.40;;;6.80;56.30;;;;;;5010803;28;20420;-51
2022/03/21 01:07:32;;;;;;;18.48;10.88;;;6.80;56.30;;;;;;5013027;28;20479;-52
2022/03/21 01:09:59;;;;;;;24.13;13.20;;;6.80;56.30;;;;;;5012907;28;20825;-51
2022/03/21 01:12:25;;;;;;;21.45;12.95;;;6.80;56.30;;;;;;5012297;28;20534;-51
2022/03/21 01:14:51;;;;;;;20.50;11.45;;;6.70;56.70;;;;;;4995517;28;20471;-51
2022/03/21 01:17:17;;;;;;;19.52;11.40;;;6.70;57.00;;;;;;5012291;28;20472;-51
2022/03/21 01:19:43;;;;;;;22.13;11.97;;;6.80;56.80;;;;;;5000485;28;20969;-52
2022/03/21 01:22:09;;;;;;;23.75;13.32;;;6.80;56.50;;;;;;5005931;28;20504;-51
2022/03/21 01:24:35;;;;;;;23.73;15.00;;;6.90;56.50;;;;;;5012787;28;20467;-51
2022/03/21 01:27:08;;;;;;;22.40;13.20;;;6.90;56.60;;;;;;5008877;28;20528;-52
2022/03/21 01:29:34;;;;;;;24.35;12.27;;;6.90;57.00;;;;;;5012314;28;20456;-51
2022/03/21 01:32:01;;;;;;;18.42;11.30;;;6.80;57.30;;;;;;5013015;28;20460;-52
2022/03/21 01:34:26;;;;;;;20.77;11.90;;;6.70;59.70;;;;;;5011667;28;21328;-51
2022/03/21 01:36:52;;;;;;;27.17;12.67;;;6.60;61.80;;;;;;5012588;28;20472;-52
2022/03/21 01:39:19;;;;;;;19.40;11.45;;;6.10;63.80;;;;;;5011624;28;20384;-51
2022/03/21 01:41:45;;;;;;;21.40;11.83;;;5.90;64.90;;;;;;5012290;28;20725;-51
2022/03/21 01:44:11;;;;;;;21.25;11.10;;;5.80;65.60;;;;;;5010183;28;20447;-51
2022/03/21 01:46:39;;;;;;;21.57;11.70;;;5.70;64.80;;;;;;5012566;28;20893;-51
2022/03/21 01:49:07;;;;;;;20.03;11.10;;;6.20;65.80;;;;;;5011857;28;20447;-51
2022/03/21 01:51:35;;;;;;;20.75;11.77;;;4.50;64.60;;;;;;5012322;28;20423;-51
2022/03/21 01:56:47;;;;;;;19.98;11.57;;;5.40;65.30;;;;;;5009022;28;20380;-52
2022/03/21 01:59:14;;;;;;;20.23;12.10;;;5.50;64.10;;;;;;5011365;28;20404;-52
2022/03/21 02:01:41;;;;;;;21.92;12.50;;;5.90;66.40;;;;;;5012050;28;20393;-53
2022/03/21 02:04:07;;;;;;;22.25;11.27;;;5.30;69.50;;;;;;5011619;28;20523;-52
2022/03/21 02:06:33;;;;;;;19.55;11.30;;;5.20;69.20;;;;;;5012063;28;20396;-52
2022/03/21 02:09:01;;;;;;;21.27;11.35;;;5.30;66.50;;;;;;5011634;28;20381;-52
2022/03/21 02:11:28;;;;;;;20.17;10.60;;;5.40;65.30;;;;;;5010941;28;20507;-52
2022/03/21 02:13:55;;;;;;;19.98;11.27;;;5.50;64.40;;;;;;5011998;28;20389;-52
2022/03/21 02:16:22;;;;;;;22.42;11.10;;;5.60;63.80;;;;;;5010574;28;20384;-51
2022/03/21 02:18:48;;;;;;;20.35;11.20;;;5.70;64.10;;;;;;5011706;28;20392;-51
2022/03/21 02:21:21;;;;;;;19.80;10.60;;;5.70;65.10;;;;;;5008184;28;20412;-51
2022/03/21 02:23:55;;;;;;;20.42;11.63;;;5.70;65.00;;;;;;5005616;28;20419;-51
2022/03/21 02:26:22;;;;;;;20.33;11.43;;;5.80;63.60;;;;;;5010927;28;20393;-51
2022/03/21 02:28:49;;;;;;;18.73;10.20;;;5.90;62.20;;;;;;5011968;28;20392;-51
2022/03/21 02:31:16;;;;;;;23.65;11.95;;;6.00;61.30;;;;;;5010660;28;20419;-52
2022/03/21 02:33:42;;;;;;;17.08;10.45;;;6.10;61.50;;;;;;5011571;28;20388;-52
2022/03/21 02:36:09;;;;;;;19.67;10.80;;;6.00;62.00;;;;;;5010744;28;20385;-51
2022/03/21 02:38:36;;;;;;;20.77;11.50;;;5.90;63.30;;;;;;5011371;28;20409;-51
2022/03/21 02:41:02;;;;;;;18.58;11.05;;;5.80;63.20;;;;;;5011363;28;20866;-51
2022/03/21 02:43:27;;;;;;;21.45;11.45;;;5.70;62.60;;;;;;5010555;28;20385;-51
2022/03/21 02:46:03;;;;;;;20.77;11.63;;;5.70;62.60;;;;;;5011215;28;20396;-51
2022/03/21 02:48:29;;;;;;;19.27;11.85;;;5.70;62.60;;;;;;5010733;28;20464;-52
2022/03/21 02:51:02;;;;;;;18.38;11.05;;;5.70;62.20;;;;;;5011085;28;20412;-51
2022/03/21 02:53:30;;;;;;;19.45;11.60;;;5.80;63.10;;;;;;5010320;28;20881;-51
2022/03/21 02:55:56;;;;;;;19.30;11.37;;;5.90;63.50;;;;;;5010188;28;20526;-52
2022/03/21 02:58:22;;;;;;;20.33;11.48;;;5.70;65.30;;;;;;5010099;28;20377;-51
2022/03/21 03:00:48;;;;;;;20.85;12.05;;;5.50;65.20;;;;;;5011098;28;20849;-51
2022/03/21 03:03:14;;;;;;;19.10;11.82;;;5.50;65.40;;;;;;5010334;28;20446;-51
2022/03/21 03:05:40;;;;;;;22.20;12.10;;;5.50;64.70;;;;;;5010862;28;20847;-51
2022/03/21 03:08:05;;;;;;;21.97;11.83;;;5.60;64.20;;;;;;5009099;28;20955;-51
2022/03/21 03:10:31;;;;;;;21.40;11.98;;;5.60;63.50;;;;;;5009979;28;20408;-52
2022/03/21 03:12:57;;;;;;;21.90;11.20;;;5.50;63.30;;;;;;5010850;28;20447;-51
2022/03/21 03:15:23;;;;;;;18.85;11.68;;;5.50;63.80;;;;;;5009760;28;20389;-51
2022/03/21 03:17:48;;;;;;;19.83;11.73;;;5.40;67.40;;;;;;5010850;28;20711;-51
2022/03/21 03:20:15;;;;;;;20.58;11.55;;;5.20;69.10;;;;;;5009383;28;20787;-51
2022/03/21 03:22:41;;;;;;;21.53;11.57;;;5.00;67.40;;;;;;5010541;28;20484;-51
2022/03/21 03:25:07;;;;;;;22.50;12.07;;;6.20;68.20;;;;;;5010280;28;20472;-51
2022/03/21 03:27:33;;;;;;;22.95;12.57;;;5.10;66.70;;;;;;5009593;28;20392;-51
2022/03/21 03:30:00;;;;;;;20.97;11.30;;;5.10;66.80;;;;;;5010599;28;20401;-51
2022/03/21 03:32:27;;;;;;;19.58;10.90;;;5.20;67.20;;;;;;5009710;28;20384;-51
2022/03/21 03:34:53;;;;;;;21.83;11.27;;;5.20;66.20;;;;;;5010512;28;20463;-51
2022/03/21 03:37:19;;;;;;;22.08;11.68;;;5.20;66.20;;;;;;5009542;28;20388;-51
2022/03/21 03:39:45;;;;;;;19.70;11.70;;;5.20;66.50;;;;;;5010311;28;20387;-51
2022/03/21 03:42:12;;;;;;;20.15;11.45;;;5.10;66.90;;;;;;5009644;28;20392;-51
2022/03/21 03:44:39;;;;;;;20.08;11.40;;;5.10;67.20;;;;;;5001357;28;20406;-52
2022/03/21 03:47:04;;;;;;;21.95;11.70;;;5.10;67.80;;;;;;5004325;28;20388;-52
2022/03/21 03:49:30;;;;;;;21.80;12.20;;;5.00;68.30;;;;;;5008426;28;20407;-51
2022/03/21 03:51:56;;;;;;;22.60;11.57;;;5.00;69.00;;;;;;5010130;28;20454;-51
2022/03/21 03:54:24;;;;;;;23.45;12.48;;;5.10;70.20;;;;;;5009377;28;20727;-51
2022/03/21 03:56:50;;;;;;;24.05;12.63;;;5.10;69.90;;;;;;5010195;28;20411;-51
2022/03/21 03:59:15;;;;;;;24.30;13.38;;;5.20;70.60;;;;;;5009066;28;20746;-51
2022/03/21 04:01:41;;;;;;;22.40;12.80;;;5.10;71.10;;;;;;5009856;28;20866;-51
2022/03/21 04:04:06;;;;;;;21.95;11.85;;;5.60;72.70;;;;;;5010311;28;20400;-51
2022/03/21 04:06:32;;;;;;;24.23;12.60;;;5.50;73.70;;;;;;5007933;28;20408;-51
2022/03/21 04:08:59;;;;;;;20.70;11.90;;;5.00;74.80;;;;;;5008382;28;20409;-51
2022/03/21 04:11:26;;;;;;;21.27;12.68;;;5.00;75.50;;;;;;5008713;28;20404;-51
2022/03/21 04:13:53;;;;;;;24.83;12.90;;;5.00;77.00;;;;;;5009795;28;20397;-51
2022/03/21 04:16:18;;;;;;;24.05;13.40;;;4.90;77.80;;;;;;5009037;28;20850;-51
2022/03/21 04:18:44;;;;;;;25.70;13.17;;;4.80;79.70;;;;;;5009968;28;20392;-52
2022/03/21 04:21:10;;;;;;;26.42;14.00;;;4.70;80.20;;;;;;5008763;28;20499;-51
2022/03/21 04:23:35;;;;;;;24.38;13.27;;;3.80;80.80;;;;;;5009397;28;20389;-51
2022/03/21 04:26:01;;;;;;;23.50;13.13;;;4.60;82.80;;;;;;5009624;28;20479;-52
2022/03/21 04:28:27;;;;;;;23.90;12.98;;;4.60;83.50;;;;;;5009091;28;20515;-51
2022/03/21 04:30:53;;;;;;;24.05;12.60;;;4.60;84.20;;;;;;5006432;28;20440;-52
2022/03/21 04:33:18;;;;;;;23.63;13.23;;;4.50;85.20;;;;;;5006918;28;20380;-54
2022/03/21 04:35:45;;;;;;;28.38;13.63;;;4.50;86.10;;;;;;4991329;28;20443;-52
2022/03/21 04:38:15;;;;;;;21.60;12.73;;;4.60;86.20;;;;;;5008206;28;20388;-52
2022/03/21 04:40:48;;;;;;;25.27;13.40;;;4.60;86.20;;;;;;5010771;28;20392;-52
2022/03/21 04:43:16;;;;;;;25.10;12.93;;;4.50;87.20;;;;;;5009707;28;20393;-52
2022/03/21 04:45:43;;;;;;;22.90;12.53;;;4.50;88.00;;;;;;4995576;28;20396;-52
2022/03/21 04:48:10;;;;;;;23.35;12.10;;;5.70;89.90;;;;;;5012055;28;20397;-52
2022/03/21 04:50:36;;;;;;;22.20;12.63;;;4.30;89.50;;;;;;5012622;28;20878;-52
2022/03/21 04:53:10;;;;;;;20.77;11.93;;;4.30;90.00;;;;;;5012767;28;20399;-52
2022/03/21 04:55:37;;;;;;;27.05;12.90;;;4.30;90.50;;;;;;5010483;28;20384;-52
2022/03/21 04:58:02;;;;;;;20.98;11.40;;;4.20;90.90;;;;;;5013321;28;20387;-52
2022/03/21 05:00:28;;;;;;;21.90;12.82;;;4.10;91.50;;;;;;5011899;28;21143;-52
2022/03/21 05:02:55;;;;;;;23.00;12.70;;;4.10;92.10;;;;;;5013133;28;20396;-53
2022/03/21 05:05:20;;;;;;;23.83;13.05;;;4.20;92.30;;;;;;5011685;28;20886;-53
2022/03/21 05:07:49;;;;;;;28.80;14.80;;;4.20;92.50;;;;;;5012572;28;20407;-53
2022/03/21 05:10:15;;;;;;;25.80;13.27;;;4.20;92.80;;;;;;5008282;28;20420;-53
2022/03/21 05:12:41;;;;;;;23.63;13.25;;;4.30;92.80;;;;;;4995147;28;20770;-53
2022/03/21 05:15:08;;;;;;;27.42;14.15;;;4.20;93.20;;;;;;5011327;28;20408;-53
2022/03/21 05:17:35;;;;;;;22.83;12.80;;;4.20;93.60;;;;;;5011499;28;20515;-53
2022/03/21 05:20:02;;;;;;;26.00;13.23;;;4.20;93.60;;;;;;5009581;28;20456;-53
2022/03/21 05:22:28;;;;;;;25.77;13.32;;;4.20;93.40;;;;;;5011430;28;20488;-53
2022/03/21 05:35:55;;;;;;;24.33;12.90;;;4.30;92.70;;;;;;5009862;28;20484;-53
2022/03/21 05:38:26;;;;;;;20.38;12.10;;;4.40;92.10;;;;;;5010845;28;20866;-53
2022/03/21 05:40:58;;;;;;;24.10;12.98;;;4.50;91.80;;;;;;5010742;28;20432;-53
2022/03/21 05:43:24;;;;;;;25.07;13.00;;;4.60;92.10;;;;;;5009448;28;20397;-53
2022/03/21 05:45:51;;;;;;;22.50;12.52;;;4.60;91.80;;;;;;5012134;28;20397;-53
2022/03/21 05:51:02;;;;;;;22.55;12.80;;;4.80;90.90;;;;;;5009192;28;20415;-53
2022/03/21 05:53:28;;;;;;;24.37;12.57;;;4.90;90.80;;;;;;4978541;28;20426;-53
2022/03/21 05:55:55;;;;;;;24.55;13.13;;;5.10;90.20;;;;;;5000553;28;20508;-51
2022/03/21 05:58:21;;;;;;;23.70;12.50;;;5.30;89.40;;;;;;5010195;28;20381;-50
2022/03/21 06:00:47;;;;;;;24.20;13.48;;;5.40;88.10;;;;;;5012124;28;20801;-51
2022/03/21 06:03:12;;;;;;;23.13;12.18;;;5.70;87.70;;;;;;5011295;28;20389;-51
2022/03/21 06:05:40;;;;;;;21.40;12.43;;;5.90;86.30;;;;;;5010887;28;20773;-51
2022/03/21 06:08:07;;;;;;;22.37;12.60;;;6.10;85.60;;;;;;5011770;28;20484;-51
2022/03/21 06:10:33;;;;;;;21.40;12.85;;;6.50;83.80;;;;;;5010358;28;20598;-51
2022/03/21 06:13:05;;;;;;;22.10;12.30;;;6.70;82.20;;;;;;5011353;28;20389;-51
2022/03/21 06:15:40;;;;;;;24.02;13.10;;;7.00;81.70;;;;;;5009494;28;20685;-51
2022/03/21 06:18:10;;;;;;;22.05;12.80;;;7.20;80.80;;;;;;5014890;28;20369;-51
2022/03/21 06:20:36;;;;;;;22.55;12.55;;;7.50;79.70;;;;;;5010315;28;20416;-51
2022/03/21 06:23:02;;;;;;;21.55;13.40;;;7.60;79.20;;;;;;5007595;28;20400;-51
2022/03/21 06:25:28;;;;;;;21.60;13.05;;;7.90;78.30;;;;;;5010246;28;20397;-53
2022/03/21 06:27:54;;;;;;;25.43;13.33;;;8.40;76.30;;;;;;5010767;28;21057;-53
2022/03/21 06:30:20;;;;;;;23.50;12.85;;;8.80;74.60;;;;;;5009343;28;20416;-53
2022/03/21 06:32:45;;;;;;;24.83;13.20;;;9.50;73.10;;;;;;5010586;28;20405;-53
2022/03/21 06:35:11;;;;;;;22.50;12.93;;;9.90;71.10;;;;;;5011128;28;20727;-51
2022/03/21 06:37:39;;;;;;;23.33;13.13;;;10.20;67.20;;;;;;5006571;28;20477;-51
2022/03/21 06:40:06;;;;;;;23.53;13.37;;;10.20;65.10;;;;;;5010074;28;20400;-51
2022/03/21 06:42:31;;;;;;;22.88;13.18;;;11.30;62.90;;;;;;5010236;28;20487;-51
2022/03/21 06:45:00;;;;;;;27.17;15.83;;;11.40;60.80;;;;;;5011019;28;20855;-51
2022/03/21 06:47:26;;;;;;;24.30;13.18;;;11.60;59.80;;;;;;5010525;28;20384;-51
2022/03/21 06:49:52;;;;;;;22.73;14.77;;;12.10;58.90;;;;;;5011448;28;21036;-51
2022/03/21 06:52:18;;;;;;;21.73;14.50;;;12.30;57.00;;;;;;5010276;28;20397;-51
2022/03/21 06:54:45;;;;;;;22.17;14.20;;;12.50;56.00;;;;;;5011368;28;20400;-51
2022/03/21 06:57:11;;;;;;;21.55;13.65;;;12.50;55.40;;;;;;5010799;28;20873;-51
2022/03/21 06:59:37;;;;;;;24.30;14.60;;;12.70;55.50;;;;;;5010544;28;20508;-52
2022/03/21 07:02:09;;;;;;;21.60;14.63;;;12.90;54.60;;;;;;5010007;28;20464;-51
2022/03/21 07:04:34;;;;;;;25.50;15.05;;;13.10;53.80;;;;;;5006376;28;20464;-52
2022/03/21 07:07:00;;;;;;;25.43;16.03;;;13.10;52.70;;;;;;5010382;28;20805;-51
2022/03/21 07:09:26;;;;;;;24.95;15.25;;;13.20;53.10;;;;;;5009204;28;20435;-51
2022/03/21 07:11:52;;;;;;;21.40;14.50;;;13.50;52.90;;;;;;5010819;28;20441;-52
2022/03/21 07:14:19;;;;;;;19.95;12.75;;;13.90;51.90;;;;;;5010093;28;20423;-54
2022/03/21 07:16:44;;;;;;;23.03;12.83;;;14.30;51.20;;;;;;5009323;28;20882;-52
2022/03/21 07:19:10;;;;;;;20.35;13.30;;;14.40;50.80;;;;;;5011216;28;20388;-52
2022/03/21 07:21:36;;;;;;;22.30;13.30;;;14.90;49.90;;;;;;5009459;28;20889;-52
2022/03/21 07:24:02;;;;;;;23.23;13.50;;;15.10;48.50;;;;;;5011046;28;20384;-54
2022/03/21 07:26:28;;;;;;;23.50;13.30;;;15.40;48.30;;;;;;5008791;28;20904;-53
2022/03/21 07:28:54;;;;;;;22.37;13.00;;;15.40;47.30;;;;;;5010213;28;20392;-53
2022/03/21 07:31:19;;;;;;;24.23;13.17;;;15.50;48.10;;;;;;5010091;28;20409;-52
2022/03/21 07:33:45;;;;;;;21.17;13.80;;;15.40;47.20;;;;;;5010837;28;20408;-53
2022/03/21 07:36:11;;;;;;;22.10;14.23;;;15.40;46.80;;;;;;5010161;28;20385;-53
2022/03/21 07:38:37;;;;;;;22.75;15.30;;;15.70;46.10;;;;;;5010034;28;20471;-53
2022/03/21 07:41:07;;;;;;;23.80;14.45;;;16.30;45.80;;;;;;5010293;28;20389;-52
2022/03/21 07:43:37;;;;;;;22.05;13.73;;;16.80;45.10;;;;;;5009979;28;20888;-53
2022/03/21 07:48:48;;;;;;;21.63;16.13;;;16.90;43.00;;;;;;5010325;28;20384;-52
2022/03/21 07:51:14;;;;;;;24.17;15.87;;;16.80;43.20;;;;;;5009769;28;20412;-52
2022/03/21 07:53:41;;;;;;;24.02;16.30;;;16.60;43.10;;;;;;5010519;28;20905;-52
2022/03/21 07:56:07;;;;;;;20.08;13.80;;;16.60;43.70;;;;;;5010154;28;20842;-52
2022/03/21 07:58:32;;;;;;;22.45;13.70;;;17.00;43.00;;;;;;5009635;28;20383;-52
2022/03/21 08:01:01;;;;;;;22.02;14.43;;;17.70;42.10;;;;;;5010330;28;20960;-52
2022/03/21 08:03:27;;;;;;;21.45;15.40;;;17.90;41.70;;;;;;5009350;28;20404;-52
2022/03/21 08:05:54;;;;;;;23.43;17.97;;;18.70;41.00;;;;;;5009920;28;20381;-53
2022/03/21 08:08:22;;;;;;;22.17;17.17;;;19.20;40.00;;;;;;5009390;28;20384;-53
2022/03/21 08:10:48;;;;;;;23.05;17.73;;;19.40;39.30;;;;;;5009762;28;20412;-52
2022/03/21 08:13:17;;;;;;;23.92;17.42;;;19.50;39.00;;;;;;5009351;28;20452;-52
2022/03/21 08:15:44;;;;;;;23.90;17.67;;;19.40;38.20;;;;;;5009805;28;20387;-53
2022/03/21 08:18:11;;;;;;;23.60;18.60;;;18.50;39.10;;;;;;5010087;28;20393;-52
2022/03/21 08:20:40;;;;;;;23.10;18.08;;;18.20;39.30;;;;;;5008848;28;20488;-52
2022/03/21 08:23:11;;;;;;;22.05;17.27;;;18.70;39.70;;;;;;5009733;28;20384;-52
2022/03/21 08:25:39;;;;;;;24.30;17.45;;;19.70;39.20;;;;;;5009177;28;20860;-53
2022/03/21 08:28:05;;;;;;;25.83;17.83;;;20.00;37.80;;;;;;5009835;28;20912;-53
2022/03/21 08:30:35;;;;;;;23.83;18.38;;;20.70;37.60;;;;;;5009195;28;20408;-53
2022/03/21 08:33:02;;;;;;;23.25;18.38;;;20.30;36.50;;;;;;5010190;28;20904;-53
2022/03/21 08:35:30;;;;;;;21.50;17.33;;;20.20;36.80;;;;;;5008901;28;20381;-53
2022/03/21 08:37:56;;;;;;;22.13;16.42;;;20.00;36.10;;;;;;5009937;28;20558;-53
2022/03/21 08:40:22;;;;;;;22.45;17.23;;;19.50;36.90;;;;;;5009050;28;20527;-53
2022/03/21 08:42:47;;;;;;;21.93;17.30;;;19.80;38.00;;;;;;5009516;28;20433;-53
2022/03/21 08:45:15;;;;;;;22.67;16.77;;;19.70;37.00;;;;;;5009630;28;20794;-53
2022/03/21 08:47:41;;;;;;;22.42;17.42;;;20.30;37.40;;;;;;5009876;28;20388;-53
2022/03/21 08:50:07;;;;;;;24.08;18.95;;;20.90;36.80;;;;;;5009343;28;20417;-53
2022/03/21 08:52:33;;;;;;;20.70;16.67;;;21.80;35.70;;;;;;5008551;28;20570;-53
2022/03/21 08:54:59;;;;;;;23.10;15.13;;;22.00;35.00;;;;;;5009437;28;20739;-53
2022/03/21 08:57:24;;;;;;;22.37;14.43;;;21.70;35.20;;;;;;5008559;28;20397;-53
2022/03/21 08:59:52;;;;;;;21.38;14.93;;;22.00;34.90;;;;;;5009281;28;20807;-53
2022/03/21 09:02:18;;;;;;;25.70;14.83;;;22.40;34.90;;;;;;5008815;28;20879;-53
2022/03/21 09:04:45;;;;;;;21.13;15.60;;;22.10;34.50;;;;;;5008757;28;20384;-53
2022/03/21 09:07:13;;;;;;;22.65;16.48;;;22.50;34.60;;;;;;5009417;28;20389;-53
2022/03/21 09:09:38;;;;;;;24.45;17.88;;;23.20;34.10;;;;;;5009828;28;20427;-53
2022/03/21 09:12:05;;;;;;;34.70;15.38;;;24.30;33.60;;;;;;5009026;28;20421;-53
2022/03/21 09:14:30;;;;;;;22.17;15.50;;;24.10;32.90;;;;;;5008802;28;20400;-53
2022/03/21 09:16:56;;;;;;;23.63;15.75;;;24.30;32.60;;;;;;5009010;28;20380;-53
2022/03/21 09:19:23;;;;;;;24.35;15.68;;;23.80;32.10;;;;;;5008450;28;20476;-54
2022/03/21 09:21:51;;;;;;;23.98;20.30;;;23.00;32.60;;;;;;5009171;28;20416;-53
2022/03/21 09:24:16;;;;;;;23.42;15.77;;;23.90;32.60;;;;;;5008813;28;20644;-53
2022/03/21 09:26:42;;;;;;;23.70;16.10;;;24.10;32.00;;;;;;5011726;28;20823;-53
2022/03/21 09:29:09;;;;;;;24.27;18.20;;;24.60;32.00;;;;;;5012911;28;20391;-53
2022/03/21 09:31:41;;;;;;;23.00;15.63;;;24.60;31.90;;;;;;5012106;28;20492;-53
2022/03/21 09:34:12;;;;;;;23.60;15.15;;;24.70;31.50;;;;;;5012531;28;20447;-53
2022/03/21 09:36:39;;;;;;;22.02;16.67;;;24.60;31.30;;;;;;5012030;28;20450;-54
2022/03/21 09:39:06;;;;;;;23.33;16.75;;;24.70;30.80;;;;;;5012178;28;20504;-53
2022/03/21 09:41:32;;;;;;;24.20;19.73;;;25.20;31.00;;;;;;5011603;28;20731;-54
2022/03/21 09:44:01;;;;;;;24.13;18.30;;;24.90;30.30;;;;;;5013127;28;20380;-53
2022/03/21 09:46:27;;;;;;;24.73;18.03;;;24.20;30.50;;;;;;5011805;28;20388;-54
2022/03/21 09:48:55;;;;;;;21.27;15.70;;;23.40;31.60;;;;;;5012794;28;20381;-53
2022/03/21 09:51:27;;;;;;;26.17;16.00;;;24.10;31.50;;;;;;5011556;28;20508;-54
2022/03/21 09:53:57;;;;;;;23.92;21.27;;;25.00;30.90;;;;;;5012506;28;20434;-53
2022/03/21 09:56:24;;;;;;;26.30;20.33;;;25.60;29.60;;;;;;5011485;28;20385;-54
2022/03/21 09:58:50;;;;;;;23.05;19.33;;;26.80;29.50;;;;;;5012470;28;20507;-54
2022/03/21 10:01:16;;;;;;;23.45;17.85;;;27.00;29.50;;;;;;5011731;28;20396;-53
2022/03/21 10:03:43;;;;;;;24.92;19.10;;;26.70;29.10;;;;;;5011972;28;20881;-53
2022/03/21 10:06:32;;;;;;;26.70;22.27;;;26.10;29.20;;;;;;5012200;28;20487;-54
2022/03/21 10:09:12;;;;;;;23.63;19.20;;;26.30;29.30;;;;;;5012360;28;20446;-53
2022/03/21 10:11:50;;;;;;;24.83;20.50;;;25.90;29.60;;;;;;5005117;28;20415;-53
2022/03/21 10:14:32;;;;;;;23.65;20.05;;;26.20;28.80;;;;;;4989399;28;20774;-53
2022/03/21 10:17:06;;;;;;;25.63;20.75;;;25.40;29.10;;;;;;5012134;28;20396;-53
2022/03/21 10:19:49;;;;;;;24.63;20.38;;;24.00;30.00;;;;;;5011389;28;20447;-54
2022/03/21 10:22:37;;;;;;;23.30;19.40;;;24.00;30.80;;;;;;5011035;28;20424;-53
2022/03/21 10:25:08;;;;;;;27.27;21.30;;;24.90;30.00;;;;;;5012155;28;20863;-53
2022/03/21 10:27:36;;;;;;;26.85;20.98;;;23.70;29.80;;;;;;5011203;28;20487;-53
2022/03/21 10:30:07;;;;;;;26.37;20.77;;;24.30;30.50;;;;;;5012430;28;20385;-53
2022/03/21 10:32:55;;;;;;;24.73;19.38;;;24.70;30.10;;;;;;5010987;28;20404;-54
2022/03/21 10:35:22;;;;;;;24.33;20.10;;;24.70;30.50;;;;;;5011403;28;20397;-53
2022/03/21 10:37:49;;;;;;;26.35;20.58;;;24.40;30.00;;;;;;5011563;28;20388;-53
2022/03/21 10:40:34;;;;;;;26.40;21.10;;;24.60;29.70;;;;;;5011256;28;20393;-53
2022/03/21 10:43:04;;;;;;;24.48;20.60;;;24.00;29.80;;;;;;5011787;28;20400;-53
2022/03/21 10:45:40;;;;;;;22.38;19.10;;;24.50;29.60;;;;;;5010923;28;20401;-53
2022/03/21 10:48:13;;;;;;;27.23;20.20;;;24.60;29.60;;;;;;5011289;28;20411;-53
2022/03/21 10:50:44;;;;;;;25.17;20.13;;;23.90;30.00;;;;;;5010636;28;20833;-53
2022/03/21 10:53:17;;;;;;;25.40;20.40;;;23.70;29.90;;;;;;5011436;28;20381;-52
2022/03/21 10:55:45;;;;;;;22.80;18.75;;;23.50;30.40;;;;;;5011036;28;20424;-53
2022/03/21 10:58:13;;;;;;;24.00;19.38;;;23.00;30.90;;;;;;5011425;28;20388;-53
2022/03/21 11:00:38;;;;;;;25.77;20.17;;;23.10;30.80;;;;;;5010588;28;20384;-53
2022/03/21 11:03:14;;;;;;;26.17;20.15;;;23.60;30.80;;;;;;5011118;28;20848;-53
2022/03/21 11:05:42;;;;;;;27.33;20.83;;;24.10;30.00;;;;;;5010787;28;20424;-53
2022/03/21 11:08:11;;;;;;;25.55;19.60;;;23.20;30.80;;;;;;5011036;28;20445;-53
2022/03/21 11:10:37;;;;;;;28.02;22.02;;;22.80;31.50;;;;;;5010260;28;20453;-53
2022/03/21 11:13:05;;;;;;;26.42;19.33;;;22.90;31.20;;;;;;5011241;28;20445;-53
2022/03/21 11:15:35;;;;;;;26.40;20.75;;;23.00;31.10;;;;;;5009813;28;20384;-53
2022/03/21 11:18:01;;;;;;;26.27;20.95;;;22.80;31.30;;;;;;5004549;28;20389;-53
2022/03/21 11:20:30;;;;;;;29.90;21.13;;;22.60;31.50;;;;;;5009980;28;20408;-53
2022/03/21 11:22:57;;;;;;;25.43;21.00;;;22.90;31.20;;;;;;5011525;28;20381;-54
2022/03/21 11:25:36;;;;;;;30.95;21.30;;;22.30;31.50;;;;;;5003730;28;20886;-53
2022/03/21 11:28:23;;;;;;;28.17;21.20;;;21.90;31.80;;;;;;5010848;28;20940;-53
2022/03/21 11:31:26;;;;;;;25.25;21.23;;;21.10;32.00;;;;;;5010804;28;20404;-52
2022/03/21 11:34:03;;;;;;;25.98;20.15;;;20.80;32.60;;;;;;4993053;28;20471;-52
2022/03/21 11:36:31;;;;;;;26.80;21.20;;;20.30;32.80;;;;;;5009793;28;20389;-53
2022/03/21 11:39:01;;;;;;;24.00;19.88;;;20.00;33.20;;;;;;5010391;28;20396;-53
2022/03/21 11:41:29;;;;;;;26.77;20.17;;;19.90;34.00;;;;;;5009596;28;20805;-52
2022/03/21 11:44:03;;;;;;;24.55;21.00;;;20.00;33.80;;;;;;5010474;28;20855;-52
2022/03/21 11:46:31;;;;;;;25.77;20.30;;;20.10;33.20;;;;;;5009909;28;20384;-53
2022/03/21 11:49:01;;;;;;;28.00;20.65;;;20.10;33.50;;;;;;5009503;28;20724;-53
2022/03/21 11:51:33;;;;;;;28.52;20.13;;;20.00;33.50;;;;;;5009521;28;20494;-53
2022/03/21 11:53:59;;;;;;;25.58;19.98;;;19.70;34.20;;;;;;5009819;28;20380;-53
2022/03/21 11:56:53;;;;;;;26.20;20.20;;;19.90;33.60;;;;;;5009452;28;20381;-53
2022/03/21 11:59:33;;;;;;;29.48;20.05;;;19.60;33.90;;;;;;4979847;28;20401;-53
2022/03/21 12:02:20;;;;;;;27.83;20.58;;;19.50;34.00;;;;;;5010121;28;20399;-52
2022/03/21 12:05:00;;;;;;;27.10;20.13;;;19.50;33.60;;;;;;5009357;28;20479;-52
2022/03/21 12:07:27;;;;;;;24.98;19.25;;;19.40;34.20;;;;;;5004895;28;20731;-52
2022/03/21 12:09:54;;;;;;;26.42;19.50;;;19.40;34.10;;;;;;5010046;28;20387;-52
2022/03/21 12:12:22;;;;;;;27.85;20.38;;;19.10;34.20;;;;;;5008768;28;20412;-53
2022/03/21 12:14:54;;;;;;;25.52;19.90;;;18.80;34.50;;;;;;5010160;28;20408;-53
2022/03/21 12:17:23;;;;;;;26.65;19.52;;;19.00;34.10;;;;;;5009623;28;20447;-53
2022/03/21 12:19:48;;;;;;;27.83;20.40;;;19.20;34.70;;;;;;5005992;28;20393;-53
2022/03/21 12:22:29;;;;;;;23.93;18.63;;;19.30;34.90;;;;;;5010002;28;20409;-53
2022/03/21 12:24:59;;;;;;;28.25;19.13;;;19.60;33.40;;;;;;5009633;28;20392;-53
2022/03/21 12:27:33;;;;;;;25.02;18.65;;;19.60;33.20;;;;;;5008909;28;20434;-53
2022/03/21 12:30:23;;;;;;;27.17;18.40;;;19.20;33.00;;;;;;5008723;28;20401;-53
2022/03/21 12:33:14;;;;;;;25.20;18.10;;;19.10;33.50;;;;;;5007121;28;20381;-53
2022/03/21 12:35:43;;;;;;;25.20;18.20;;;19.20;33.30;;;;;;4989522;28;21246;-53
2022/03/21 12:38:14;;;;;;;23.90;18.05;;;19.40;33.90;;;;;;5007735;28;20488;-53
2022/03/21 12:40:52;;;;;;;25.25;18.45;;;19.60;33.30;;;;;;5007598;28;20470;-53
2022/03/21 12:43:25;;;;;;;26.25;17.98;;;19.80;32.70;;;;;;5007322;28;20401;-51
2022/03/21 12:46:09;;;;;;;25.27;17.67;;;19.80;32.50;;;;;;5006867;28;20471;-53
2022/03/21 12:48:36;;;;;;;21.90;16.08;;;19.60;32.80;;;;;;5006111;28;20392;-53
2022/03/21 12:51:07;;;;;;;22.60;18.35;;;19.60;32.60;;;;;;5008958;28;20413;-53
2022/03/21 12:53:47;;;;;;;27.30;17.85;;;19.50;33.90;;;;;;5008376;28;20392;-53
2022/03/21 12:56:16;;;;;;;22.30;16.83;;;19.40;32.90;;;;;;5007552;28;20397;-54